Time;durP1;ratioP1;P1;durP2;ratioP2;P2;SDS_P1;SDS_P2;PMS_P1;PMS_P2;Temp;Humidity;BMP_temperature;BMP_pressure;BME280_temperature;BME280_humidity;BME280_pressure;Samples;Min_cycle;Max_cycle;Signal;HPM_P1;HPM_P2
2022/10/29 00:01:43;;;;;;;;;;;14.20;99.90;;;;;;5053074;28;19924;-71
2022/10/29 00:04:08;;;;;;;;;;;14.10;99.90;;;;;;5051698;28;19924;-71
2022/10/29 00:06:34;;;;;;;;;;;14.30;99.90;;;;;;5077402;22;19924;-71
2022/10/29 00:08:59;;;;;;;;;;;14.20;99.90;;;;;;5048815;28;19924;-71
2022/10/29 00:11:25;;;;;;;;;;;14.20;99.90;;;;;;5039076;28;19975;-71
2022/10/29 00:13:55;;;;;;;;;;;14.10;99.90;;;;;;5030308;28;19965;-71
2022/10/29 00:16:22;;;;;;;;;;;14.00;99.90;;;;;;5056049;28;19924;-71
2022/10/29 00:18:48;;;;;;;;;;;14.20;99.90;;;;;;5071829;28;20301;-71
2022/10/29 00:21:15;;;;;;;;;;;14.00;99.90;;;;;;5073530;28;19928;-71
2022/10/29 00:23:40;;;;;;;;;;;14.00;99.90;;;;;;5073290;28;19989;-71
2022/10/29 00:26:06;;;;;;;;;;;13.90;99.90;;;;;;5072622;28;20316;-70
2022/10/29 00:28:31;;;;;;;;;;;14.00;99.90;;;;;;5053829;28;20032;-71
2022/10/29 00:31:01;;;;;;;;;;;14.20;99.90;;;;;;5055743;28;19924;-71
2022/10/29 00:33:26;;;;;;;;;;;14.00;99.90;;;;;;5055032;28;19924;-71
2022/10/29 00:36:02;;;;;;;;;;;14.10;99.90;;;;;;5046699;28;20373;-71
2022/10/29 00:38:29;;;;;;;;;;;14.00;99.90;;;;;;5038404;28;19975;-70
2022/10/29 00:40:55;;;;;;;;;;;13.70;99.90;;;;;;5055364;28;19920;-71
2022/10/29 00:43:21;;;;;;;;;;;13.80;99.90;;;;;;5055025;28;19927;-71
2022/10/29 00:45:50;;;;;;;;;;;13.70;99.90;;;;;;5045649;28;19920;-71
2022/10/29 00:48:15;;;;;;;;;;;13.90;99.90;;;;;;5073034;28;19983;-71
2022/10/29 00:50:41;;;;;;;;;;;13.90;99.90;;;;;;5055107;28;19967;-71
2022/10/29 00:53:07;;;;;;;;;;;13.60;99.90;;;;;;5072827;28;20315;-71
2022/10/29 00:55:32;;;;;;;;;;;13.70;99.90;;;;;;5071986;28;19921;-71
2022/10/29 00:57:59;;;;;;;;;;;14.70;99.90;;;;;;5055018;28;19924;-71
2022/10/29 01:00:25;;;;;;;;;;;13.90;99.90;;;;;;5054884;28;19921;-71
2022/10/29 01:02:50;;;;;;;;;;;13.70;99.90;;;;;;5054632;28;20345;-70
2022/10/29 01:05:18;;;;;;;;;;;13.50;99.90;;;;;;5071880;28;19941;-71
2022/10/29 01:07:44;;;;;;;;;;;13.70;99.90;;;;;;5072580;28;19921;-71
2022/10/29 01:10:10;;;;;;;;;;;14.10;99.90;;;;;;5072628;28;20421;-71
2022/10/29 01:12:52;;;;;;;;;;;13.60;99.90;;;;;;5054432;28;20014;-71
2022/10/29 01:15:20;;;;;;;;;;;13.60;99.90;;;;;;5072085;28;20294;-71
2022/10/29 01:18:00;;;;;;;;;;;13.70;99.90;;;;;;5072470;28;20453;-71
2022/10/29 01:20:44;;;;;;;;;;;13.70;99.90;;;;;;5072690;28;20310;-71
2022/10/29 01:23:28;;;;;;;;;;;13.70;99.90;;;;;;5071828;28;20308;-71
2022/10/29 01:25:56;;;;;;;;;;;13.70;99.90;;;;;;5071468;28;19974;-71
2022/10/29 01:28:39;;;;;;;;;;;13.80;99.90;;;;;;5052300;28;19973;-71
2022/10/29 01:31:10;;;;;;;;;;;14.20;99.90;;;;;;5072513;28;19974;-71
2022/10/29 01:33:54;;;;;;;;;;;13.80;99.90;;;;;;5072413;28;19924;-70
2022/10/29 01:36:26;;;;;;;;;;;13.90;99.90;;;;;;5054119;28;19920;-71
2022/10/29 01:38:55;;;;;;;;;;;14.00;99.90;;;;;;5053704;28;20400;-71
2022/10/29 01:41:39;;;;;;;;;;;13.80;99.90;;;;;;5054261;28;19920;-71
2022/10/29 01:44:09;;;;;;;;;;;13.90;99.90;;;;;;5036205;28;19936;-71
2022/10/29 01:46:38;;;;;;;;;;;13.70;99.90;;;;;;5053963;28;19920;-71
2022/10/29 01:49:06;;;;;;;;;;;13.70;99.90;;;;;;5072056;28;19925;-71
2022/10/29 01:51:33;;;;;;;;;;;14.00;99.90;;;;;;5054197;28;19971;-71
2022/10/29 01:54:00;;;;;;;;;;;15.10;99.90;;;;;;5071289;28;20398;-71
2022/10/29 01:56:25;;;;;;;;;;;13.50;99.90;;;;;;5052974;28;19921;-70
2022/10/29 01:58:53;;;;;;;;;;;13.80;99.90;;;;;;5072000;28;19920;-71
2022/10/29 02:01:19;;;;;;;;;;;13.70;99.90;;;;;;5053928;28;19920;-71
2022/10/29 02:03:45;;;;;;;;;;;;;;;;;;5053859;28;20010;-70
2022/10/29 02:06:29;;;;;;;;;;;13.50;99.90;;;;;;5053675;28;19925;-71
2022/10/29 02:08:59;;;;;;;;;;;13.50;99.90;;;;;;5053967;28;19979;-70
2022/10/29 02:11:57;;;;;;;;;;;14.00;99.90;;;;;;5071996;28;20015;-71
2022/10/29 02:14:31;;;;;;;;;;;13.50;99.90;;;;;;5009085;28;19921;-71
2022/10/29 02:16:57;;;;;;;;;;;13.50;99.90;;;;;;5071858;28;20453;-71
2022/10/29 02:19:27;;;;;;;;;;;13.70;99.90;;;;;;5053682;28;19931;-71
2022/10/29 02:21:53;;;;;;;;;;;13.60;99.90;;;;;;5071752;28;19920;-71
2022/10/29 02:24:18;;;;;;;;;;;13.70;99.90;;;;;;5070984;28;19974;-71
2022/10/29 02:26:44;;;;;;;;;;;13.60;99.90;;;;;;5071785;28;20393;-71
2022/10/29 02:29:09;;;;;;;;;;;13.60;99.90;;;;;;5069692;28;19921;-71
2022/10/29 02:31:35;;;;;;;;;;;13.70;99.90;;;;;;5053804;28;19963;-71
2022/10/29 02:34:00;;;;;;;;;;;13.70;99.90;;;;;;5070743;28;19924;-71
2022/10/29 02:36:26;;;;;;;;;;;13.40;99.90;;;;;;5052915;28;19931;-71
2022/10/29 02:38:51;;;;;;;;;;;13.50;99.90;;;;;;5037303;28;19968;-71
2022/10/29 02:41:17;;;;;;;;;;;13.70;99.90;;;;;;5071255;28;19974;-71
2022/10/29 02:43:42;;;;;;;;;;;14.40;99.90;;;;;;5052863;28;19920;-71
2022/10/29 02:46:08;;;;;;;;;;;13.50;99.90;;;;;;5051567;28;19927;-71
2022/10/29 02:48:34;;;;;;;;;;;13.50;99.90;;;;;;5053125;28;19932;-71
2022/10/29 02:50:59;;;;;;;;;;;13.50;99.90;;;;;;5053503;28;19921;-71
2022/10/29 02:53:25;;;;;;;;;;;15.20;99.90;;;;;;5053864;28;20397;-71
2022/10/29 02:55:50;;;;;;;;;;;13.70;99.90;;;;;;5070625;28;19921;-71
2022/10/29 02:58:16;;;;;;;;;;;13.90;99.90;;;;;;5071626;28;19969;-71
2022/10/29 03:00:41;;;;;;;;;;;13.70;99.90;;;;;;5053829;28;19920;-71
2022/10/29 03:03:07;;;;;;;;;;;13.60;99.90;;;;;;5036496;28;19974;-70
2022/10/29 03:05:32;;;;;;;;;;;13.80;99.90;;;;;;5070101;28;20445;-71
2022/10/29 03:07:58;;;;;;;;;;;13.70;99.90;;;;;;5056750;28;19954;-71
2022/10/29 03:10:23;;;;;;;;;;;13.60;99.90;;;;;;5075144;28;19924;-71
2022/10/29 03:12:48;;;;;;;;;;;13.50;99.90;;;;;;5057360;28;19967;-71
2022/10/29 03:15:14;;;;;;;;;;;13.50;99.90;;;;;;5074123;28;19928;-71
2022/10/29 03:17:39;;;;;;;;;;;13.60;99.90;;;;;;5056568;28;19920;-71
2022/10/29 03:20:05;;;;;;;;;;;13.50;99.90;;;;;;5056291;28;19920;-71
2022/10/29 03:22:31;;;;;;;;;;;13.70;99.90;;;;;;5056821;28;20031;-71
2022/10/29 03:24:56;;;;;;;;;;;13.70;99.90;;;;;;5055907;28;19970;-71
2022/10/29 03:27:22;;;;;;;;;;;13.70;99.90;;;;;;5073992;28;20302;-71
2022/10/29 03:29:47;;;;;;;;;;;13.70;99.90;;;;;;5055509;28;19929;-71
2022/10/29 03:32:13;;;;;;;;;;;13.40;99.90;;;;;;5074461;28;19920;-71
2022/10/29 03:34:38;;;;;;;;;;;13.40;99.90;;;;;;5056050;28;19924;-72
2022/10/29 03:37:04;;;;;;;;;;;13.60;99.90;;;;;;5074262;28;20018;-71
2022/10/29 03:39:29;;;;;;;;;;;13.60;99.90;;;;;;5074313;28;20394;-71
2022/10/29 03:41:54;;;;;;;;;;;13.80;99.90;;;;;;5074373;28;19966;-71
2022/10/29 03:44:20;;;;;;;;;;;13.50;99.90;;;;;;5055968;28;20015;-71
2022/10/29 03:46:45;;;;;;;;;;;13.60;99.90;;;;;;5056173;28;19978;-71
2022/10/29 03:49:11;;;;;;;;;;;13.50;99.90;;;;;;5056503;28;20389;-71
2022/10/29 03:51:36;;;;;;;;;;;13.60;99.90;;;;;;5074052;28;19921;-71
2022/10/29 03:54:02;;;;;;;;;;;13.60;99.90;;;;;;5073580;28;20751;-71
2022/10/29 03:56:27;;;;;;;;;;;13.70;99.90;;;;;;5056455;28;20422;-71
2022/10/29 03:58:53;;;;;;;;;;;13.50;99.90;;;;;;5056399;28;19920;-72
2022/10/29 04:01:18;;;;;;;;;;;13.70;99.90;;;;;;5055869;28;19921;-71
2022/10/29 04:03:44;;;;;;;;;;;;;;;;;;5073693;28;20554;-72
2022/10/29 04:06:11;;;;;;;;;;;13.50;99.90;;;;;;5073444;28;20309;-71
2022/10/29 04:08:37;;;;;;;;;;;15.10;99.90;;;;;;5055221;28;19979;-71
2022/10/29 04:11:02;;;;;;;;;;;13.90;99.90;;;;;;5055869;28;20428;-70
2022/10/29 04:13:28;;;;;;;;;;;14.00;99.90;;;;;;5055610;28;19920;-71
2022/10/29 04:15:54;;;;;;;;;;;13.70;99.90;;;;;;5072642;28;19920;-71
2022/10/29 04:18:19;;;;;;;;;;;13.80;99.90;;;;;;5054868;28;20298;-71
2022/10/29 04:20:45;;;;;;;;;;;13.90;99.90;;;;;;5073652;28;19927;-71
2022/10/29 04:23:11;;;;;;;;;;;13.50;99.90;;;;;;5073834;28;19931;-72
2022/10/29 04:25:36;;;;;;;;;;;13.50;99.90;;;;;;5072448;28;19928;-72
2022/10/29 04:28:02;;;;;;;;;;;13.50;99.90;;;;;;5073864;28;19924;-72
2022/10/29 04:30:28;;;;;;;;;;;13.60;99.90;;;;;;5054638;28;19921;-72
2022/10/29 04:32:57;;;;;;;;;;;13.80;99.90;;;;;;5055539;28;19927;-72
2022/10/29 04:35:23;;;;;;;;;;;13.70;99.90;;;;;;5055014;28;20066;-72
2022/10/29 04:37:54;;;;;;;;;;;13.70;99.90;;;;;;5038911;28;20389;-72
2022/10/29 04:40:21;;;;;;;;;;;13.80;99.90;;;;;;5055258;28;20015;-72
2022/10/29 04:42:46;;;;;;;;;;;13.50;99.90;;;;;;5072536;28;19925;-72
2022/10/29 04:45:12;;;;;;;;;;;13.90;99.90;;;;;;5072750;28;19927;-72
2022/10/29 04:47:37;;;;;;;;;;;13.70;99.90;;;;;;5072817;28;19931;-72
2022/10/29 04:50:03;;;;;;;;;;;13.90;99.90;;;;;;5073086;28;20317;-72
2022/10/29 04:52:28;;;;;;;;;;;13.70;99.90;;;;;;5055462;28;19927;-72
2022/10/29 04:54:54;;;;;;;;;;;13.40;99.90;;;;;;5072207;28;19920;-72
2022/10/29 04:57:19;;;;;;;;;;;13.40;99.90;;;;;;5072687;28;20394;-72
2022/10/29 04:59:45;;;;;;;;;;;13.60;99.90;;;;;;5054961;28;19973;-72
2022/10/29 05:02:10;;;;;;;;;;;14.90;99.90;;;;;;5054894;28;19924;-72
2022/10/29 05:04:36;;;;;;;;;;;13.50;99.90;;;;;;5053746;28;19967;-72
2022/10/29 05:07:01;;;;;;;;;;;13.50;99.90;;;;;;5054518;28;19921;-72
2022/10/29 05:09:26;;;;;;;;;;;13.60;99.90;;;;;;5072804;28;19920;-72
2022/10/29 05:11:52;;;;;;;;;;;14.90;99.90;;;;;;5054741;28;19972;-73
2022/10/29 05:14:17;;;;;;;;;;;14.50;99.90;;;;;;5053557;28;19927;-72
2022/10/29 05:16:43;;;;;;;;;;;13.60;99.90;;;;;;5072216;28;19926;-72
2022/10/29 05:19:08;;;;;;;;;;;13.50;99.90;;;;;;5037981;28;19921;-72
2022/10/29 05:21:34;;;;;;;;;;;13.40;99.90;;;;;;5054573;28;19921;-73
2022/10/29 05:23:59;;;;;;;;;;;13.90;99.90;;;;;;5054048;28;20298;-72
2022/10/29 05:26:25;;;;;;;;;;;13.40;99.90;;;;;;5054491;28;19920;-73
2022/10/29 05:28:50;;;;;;;;;;;13.90;99.90;;;;;;5071461;28;20447;-73
2022/10/29 05:31:16;;;;;;;;;;;13.70;99.90;;;;;;5072096;28;19925;-72
2022/10/29 05:33:42;;;;;;;;;;;15.00;99.90;;;;;;5053889;28;19921;-72
2022/10/29 05:36:07;;;;;;;;;;;13.70;99.90;;;;;;5071369;28;19920;-72
2022/10/29 05:38:33;;;;;;;;;;;13.30;99.90;;;;;;5054257;28;19920;-72
2022/10/29 05:40:59;;;;;;;;;;;13.30;99.90;;;;;;5072466;28;19973;-72
2022/10/29 05:43:24;;;;;;;;;;;13.40;99.90;;;;;;5072320;28;19921;-73
2022/10/29 05:45:50;;;;;;;;;;;13.60;99.90;;;;;;5036765;28;19920;-72
2022/10/29 05:48:15;;;;;;;;;;;13.30;99.90;;;;;;5071824;28;19925;-72
2022/10/29 05:50:41;;;;;;;;;;;13.70;99.90;;;;;;5054114;28;20010;-73
2022/10/29 05:53:08;;;;;;;;;;;13.70;99.90;;;;;;5072062;28;19925;-72
2022/10/29 05:55:34;;;;;;;;;;;13.60;99.90;;;;;;5053266;28;19928;-72
2022/10/29 05:58:00;;;;;;;;;;;13.40;99.90;;;;;;5054174;28;19920;-72
2022/10/29 06:00:27;;;;;;;;;;;13.60;99.90;;;;;;5053921;28;20018;-72
2022/10/29 06:02:53;;;;;;;;;;;13.60;99.90;;;;;;5054480;28;20562;-73
2022/10/29 06:07:43;;;;;;;;;;;13.70;99.90;;;;;;5086697;22;20039;-71
2022/10/29 06:10:09;;;;;;;;;;;13.30;99.90;;;;;;5071945;28;20276;-71
2022/10/29 06:12:34;;;;;;;;;;;14.80;99.90;;;;;;5054144;28;20373;-70
2022/10/29 06:15:00;;;;;;;;;;;13.40;99.90;;;;;;5036615;28;19921;-70
2022/10/29 06:17:26;;;;;;;;;;;13.40;99.90;;;;;;5053929;28;19974;-70
2022/10/29 06:19:51;;;;;;;;;;;13.70;99.90;;;;;;5071649;28;19921;-71
2022/10/29 06:22:17;;;;;;;;;;;14.40;99.90;;;;;;5053986;28;19927;-71
2022/10/29 06:24:42;;;;;;;;;;;14.40;99.90;;;;;;5071354;28;19927;-71
2022/10/29 06:27:07;;;;;;;;;;;13.70;99.90;;;;;;5053865;28;19934;-71
2022/10/29 06:29:33;;;;;;;;;;;13.80;99.90;;;;;;5051952;28;19932;-70
2022/10/29 06:31:58;;;;;;;;;;;13.80;99.90;;;;;;5053820;28;19920;-71
2022/10/29 06:34:24;;;;;;;;;;;13.60;99.90;;;;;;5071145;28;20542;-70
2022/10/29 06:36:50;;;;;;;;;;;13.50;99.90;;;;;;5071532;28;19920;-71
2022/10/29 06:39:15;;;;;;;;;;;13.70;99.90;;;;;;5071339;28;20026;-72
2022/10/29 06:41:41;;;;;;;;;;;13.80;99.90;;;;;;5055170;28;19924;-71
2022/10/29 06:44:06;;;;;;;;;;;13.90;99.90;;;;;;5077623;28;19920;-71
2022/10/29 06:46:33;;;;;;;;;;;13.90;99.90;;;;;;5071943;28;20019;-71
2022/10/29 06:48:59;;;;;;;;;;;14.50;99.90;;;;;;5074707;28;19971;-72
2022/10/29 06:51:25;;;;;;;;;;;13.80;99.90;;;;;;5040760;28;20442;-71
2022/10/29 06:53:52;;;;;;;;;;;14.00;99.90;;;;;;5057215;28;20023;-71
2022/10/29 06:56:18;;;;;;;;;;;13.70;99.90;;;;;;5056621;28;19927;-71
2022/10/29 06:58:43;;;;;;;;;;;14.00;99.90;;;;;;5054310;28;19920;-71
2022/10/29 07:01:09;;;;;;;;;;;13.70;99.90;;;;;;5075352;28;19920;-71
2022/10/29 07:03:34;;;;;;;;;;;13.50;99.90;;;;;;5057161;28;19927;-71
2022/10/29 07:06:00;;;;;;;;;;;13.80;99.90;;;;;;5056024;28;19920;-70
2022/10/29 07:08:25;;;;;;;;;;;13.60;99.90;;;;;;5075104;28;19920;-71
2022/10/29 07:10:52;;;;;;;;;;;15.20;99.90;;;;;;5075083;28;20420;-71
2022/10/29 07:13:17;;;;;;;;;;;15.20;99.90;;;;;;5075020;28;20325;-71
2022/10/29 07:15:42;;;;;;;;;;;13.70;99.90;;;;;;5037482;28;19928;-70
2022/10/29 07:18:08;;;;;;;;;;;14.00;99.90;;;;;;5063113;28;19962;-70
2022/10/29 07:20:37;;;;;;;;;;;14.90;99.90;;;;;;5079742;28;19929;-71
2022/10/29 07:23:03;;;;;;;;;;;15.10;99.90;;;;;;5057900;28;19921;-71
2022/10/29 07:25:29;;;;;;;;;;;14.30;99.90;;;;;;5056068;28;19920;-71
2022/10/29 07:28:00;;;;;;;;;;;14.30;99.90;;;;;;5056843;28;19920;-71
2022/10/29 07:30:26;;;;;;;;;;;13.90;99.90;;;;;;5040789;28;19931;-71
2022/10/29 07:32:51;;;;;;;;;;;14.30;99.90;;;;;;5075830;28;19920;-71
2022/10/29 07:35:17;;;;;;;;;;;14.50;99.90;;;;;;5056760;28;19920;-71
2022/10/29 07:37:42;;;;;;;;;;;13.80;99.90;;;;;;5056428;28;20003;-71
2022/10/29 07:40:08;;;;;;;;;;;14.00;99.90;;;;;;5054539;28;19974;-71
2022/10/29 07:42:34;;;;;;;;;;;14.10;99.90;;;;;;5074263;28;19928;-71
2022/10/29 07:44:59;;;;;;;;;;;14.00;99.90;;;;;;5073765;28;19920;-71
2022/10/29 07:47:24;;;;;;;;;;;14.40;99.90;;;;;;5052765;28;19928;-71
2022/10/29 07:49:50;;;;;;;;;;;14.00;99.90;;;;;;5052018;28;20016;-71
2022/10/29 07:52:15;;;;;;;;;;;13.90;99.90;;;;;;5052482;28;19921;-71
2022/10/29 07:54:41;;;;;;;;;;;15.60;99.90;;;;;;5037851;28;19924;-71
2022/10/29 07:57:06;;;;;;;;;;;14.00;99.90;;;;;;5055927;28;19920;-71
2022/10/29 07:59:32;;;;;;;;;;;14.60;99.90;;;;;;5056515;28;20017;-71
2022/10/29 08:01:57;;;;;;;;;;;14.30;99.90;;;;;;5073610;28;19920;-71
2022/10/29 08:04:23;;;;;;;;;;;14.00;99.90;;;;;;5054607;28;19928;-71
2022/10/29 08:06:49;;;;;;;;;;;14.20;99.90;;;;;;5074013;28;20003;-70
2022/10/29 08:09:14;;;;;;;;;;;14.40;99.90;;;;;;5056035;28;19921;-71
2022/10/29 08:11:40;;;;;;;;;;;14.10;99.90;;;;;;5039387;28;19925;-71
2022/10/29 08:14:05;;;;;;;;;;;14.20;99.90;;;;;;5055139;28;19974;-70
2022/10/29 08:16:31;;;;;;;;;;;14.00;99.90;;;;;;5051231;28;20010;-70
2022/10/29 08:18:56;;;;;;;;;;;14.50;99.90;;;;;;5051475;28;19966;-70
2022/10/29 08:21:22;;;;;;;;;;;14.40;99.90;;;;;;5034060;28;19920;-70
2022/10/29 08:23:48;;;;;;;;;;;14.50;99.90;;;;;;5051383;28;19925;-70
2022/10/29 08:26:14;;;;;;;;;;;14.30;99.90;;;;;;5051063;28;20019;-70
2022/10/29 08:28:41;;;;;;;;;;;14.30;99.90;;;;;;5065159;28;19927;-70
2022/10/29 08:31:07;;;;;;;;;;;14.20;99.90;;;;;;5034420;28;19932;-71
2022/10/29 08:33:33;;;;;;;;;;;14.90;99.90;;;;;;5051360;28;19924;-70
2022/10/29 08:35:58;;;;;;;;;;;14.90;99.90;;;;;;5033984;28;19986;-70
2022/10/29 08:38:24;;;;;;;;;;;14.70;99.90;;;;;;5051174;28;20026;-70
2022/10/29 08:40:58;;;;;;;;;;;14.50;99.90;;;;;;5069231;28;20002;-71
2022/10/29 08:43:43;;;;;;;;;;;14.60;99.90;;;;;;5058996;28;19978;-70
2022/10/29 08:46:15;;;;;;;;;;;14.30;99.90;;;;;;5061322;28;19924;-70
2022/10/29 08:48:45;;;;;;;;;;;14.60;99.90;;;;;;5051164;28;19930;-71
2022/10/29 08:51:13;;;;;;;;;;;13.70;99.90;;;;;;5062580;28;19932;-70
2022/10/29 08:53:45;;;;;;;;;;;14.60;99.90;;;;;;5067033;28;19974;-70
2022/10/29 08:56:17;;;;;;;;;;;14.70;99.90;;;;;;5045486;28;19924;-70
2022/10/29 08:58:46;;;;;;;;;;;14.60;99.90;;;;;;5055323;28;19924;-70
2022/10/29 09:01:12;;;;;;;;;;;14.80;99.90;;;;;;5068916;28;19951;-70
2022/10/29 09:03:37;;;;;;;;;;;14.80;99.90;;;;;;5054887;28;20298;-70
2022/10/29 09:06:03;;;;;;;;;;;15.30;99.90;;;;;;5056396;28;19959;-70
2022/10/29 09:08:33;;;;;;;;;;;14.80;99.90;;;;;;5067887;28;20007;-70
2022/10/29 09:11:04;;;;;;;;;;;15.00;99.90;;;;;;5059638;28;20294;-70
2022/10/29 09:13:53;;;;;;;;;;;15.40;99.90;;;;;;5061981;28;19951;-70
2022/10/29 09:16:41;;;;;;;;;;;14.90;99.90;;;;;;5046714;28;19925;-70
2022/10/29 09:19:13;;;;;;;;;;;14.90;99.90;;;;;;5067054;28;19975;-70
2022/10/29 09:21:38;;;;;;;;;;;14.90;99.90;;;;;;5044274;28;19929;-70
2022/10/29 09:24:12;;;;;;;;;;;15.10;99.90;;;;;;5047589;28;19929;-70
2022/10/29 09:26:42;;;;;;;;;;;15.00;99.90;;;;;;5044351;28;19925;-70
2022/10/29 09:29:31;;;;;;;;;;;15.20;99.90;;;;;;5027326;28;20374;-70
2022/10/29 09:32:11;;;;;;;;;;;15.10;99.90;;;;;;5068237;28;20386;-70
2022/10/29 09:34:46;;;;;;;;;;;15.10;99.90;;;;;;5051672;28;20007;-70
2022/10/29 09:37:35;;;;;;;;;;;15.20;99.90;;;;;;5051006;28;19936;-72
2022/10/29 09:40:03;;;;;;;;;;;15.10;99.90;;;;;;5047490;28;19966;-71
2022/10/29 09:42:34;;;;;;;;;;;16.70;99.90;;;;;;5032662;28;19931;-70
2022/10/29 09:45:08;;;;;;;;;;;15.10;99.90;;;;;;5048431;28;19932;-71
2022/10/29 09:47:40;;;;;;;;;;;15.60;99.90;;;;;;5034699;28;19925;-71
2022/10/29 09:50:12;;;;;;;;;;;15.90;99.90;;;;;;5047870;28;20378;-70
2022/10/29 09:52:39;;;;;;;;;;;15.60;99.90;;;;;;5052030;28;19940;-70
2022/10/29 09:55:06;;;;;;;;;;;16.70;99.90;;;;;;5051538;28;20285;-70
2022/10/29 09:57:33;;;;;;;;;;;15.70;99.90;;;;;;5061281;28;20302;-69
2022/10/29 10:00:00;;;;;;;;;;;15.60;99.90;;;;;;5071644;28;19928;-70
2022/10/29 10:02:29;;;;;;;;;;;15.70;99.90;;;;;;5052462;28;20374;-71
2022/10/29 10:04:56;;;;;;;;;;;15.70;99.90;;;;;;5066645;28;19943;-71
2022/10/29 10:07:21;;;;;;;;;;;16.50;99.90;;;;;;5032227;28;19924;-70
2022/10/29 10:09:51;;;;;;;;;;;16.80;99.90;;;;;;5049325;28;19928;-70
2022/10/29 10:12:21;;;;;;;;;;;16.20;99.90;;;;;;5047867;28;19920;-70
2022/10/29 10:14:47;;;;;;;;;;;16.00;99.90;;;;;;5031041;28;19927;-71
2022/10/29 10:17:13;;;;;;;;;;;16.40;99.90;;;;;;5050264;28;20305;-71
2022/10/29 10:19:45;;;;;;;;;;;16.30;99.90;;;;;;5049864;28;20389;-70
2022/10/29 10:22:18;;;;;;;;;;;16.30;99.90;;;;;;5047404;28;19981;-71
2022/10/29 10:24:43;;;;;;;;;;;16.30;99.90;;;;;;5068000;28;19994;-70
2022/10/29 10:27:18;;;;;;;;;;;17.50;99.90;;;;;;5049688;28;19955;-70
2022/10/29 10:30:04;;;;;;;;;;;16.30;99.90;;;;;;5050399;28;19925;-71
2022/10/29 10:32:29;;;;;;;;;;;17.00;99.90;;;;;;5066392;28;19967;-70
2022/10/29 10:34:55;;;;;;;;;;;16.80;99.90;;;;;;5049903;28;19971;-69
2022/10/29 10:37:20;;;;;;;;;;;17.00;99.90;;;;;;5047687;28;19936;-70
2022/10/29 10:40:18;;;;;;;;;;;16.80;99.90;;;;;;5068717;28;19943;-69
2022/10/29 10:42:46;;;;;;;;;;;16.80;99.90;;;;;;4992346;28;19979;-70
2022/10/29 10:45:16;;;;;;;;;;;17.50;99.90;;;;;;5047850;28;19927;-70
2022/10/29 10:47:45;;;;;;;;;;;;;;;;;;5064142;28;19925;-69
2022/10/29 10:50:13;;;;;;;;;;;;;;;;;;5045596;28;19928;-70
2022/10/29 10:52:39;;;;;;;;;;;;;;;;;;5068357;28;19920;-69
2022/10/29 10:55:05;;;;;;;;;;;;;;;;;;5067085;28;20824;-69
2022/10/29 10:57:31;;;;;;;;;;;;;;;;;;5049318;28;20518;-69
2022/10/29 10:59:57;;;;;;;;;;;;;;;;;;5063643;28;19967;-70
2022/10/29 11:02:23;;;;;;;;;;;;;;;;;;5050824;28;19967;-70
2022/10/29 11:04:48;;;;;;;;;;;;;;;;;;5047825;28;19970;-70
2022/10/29 11:07:15;;;;;;;;;;;17.40;99.90;;;;;;5049331;28;19931;-70
2022/10/29 11:09:45;;;;;;;;;;;17.70;99.90;;;;;;5064315;28;19959;-69
2022/10/29 11:12:14;;;;;;;;;;;17.40;99.90;;;;;;5064678;28;20410;-69
2022/10/29 11:14:45;;;;;;;;;;;;;;;;;;5066370;28;19921;-69
2022/10/29 11:17:17;;;;;;;;;;;;;;;;;;5065953;28;19932;-69
2022/10/29 11:19:44;;;;;;;;;;;17.40;99.90;;;;;;5068372;28;19920;-69
2022/10/29 11:22:19;;;;;;;;;;;17.50;99.90;;;;;;5048162;28;19971;-69
2022/10/29 11:24:52;;;;;;;;;;;17.50;99.90;;;;;;5050617;28;19925;-69
2022/10/29 11:27:21;;;;;;;;;;;17.50;99.90;;;;;;5046236;28;20019;-70
2022/10/29 11:29:50;;;;;;;;;;;17.60;99.90;;;;;;5066427;28;19924;-70
2022/10/29 11:32:22;;;;;;;;;;;17.80;99.90;;;;;;5051185;28;20341;-69
2022/10/29 11:35:06;;;;;;;;;;;17.90;99.90;;;;;;5049611;28;19920;-70
2022/10/29 11:37:51;;;;;;;;;;;17.90;99.90;;;;;;5032560;28;19920;-69
2022/10/29 11:40:35;;;;;;;;;;;17.80;99.90;;;;;;5048447;28;20022;-70
2022/10/29 11:43:02;;;;;;;;;;;17.90;99.90;;;;;;5048367;28;19927;-69
2022/10/29 11:45:36;;;;;;;;;;;17.80;99.90;;;;;;5046657;28;19964;-70
2022/10/29 11:48:16;;;;;;;;;;;17.90;99.90;;;;;;5068610;28;19920;-70
2022/10/29 11:50:46;;;;;;;;;;;17.80;99.90;;;;;;5046670;28;19929;-69
2022/10/29 11:53:14;;;;;;;;;;;17.80;99.90;;;;;;5063252;28;19927;-68
2022/10/29 11:56:00;;;;;;;;;;;17.80;99.90;;;;;;5048003;28;19921;-68
2022/10/29 11:58:32;;;;;;;;;;;17.90;99.90;;;;;;5043535;28;19951;-69
2022/10/29 12:00:57;;;;;;;;;;;17.60;99.90;;;;;;5046806;28;19924;-69
2022/10/29 12:03:34;;;;;;;;;;;18.00;99.90;;;;;;5057869;28;20339;-69
2022/10/29 12:06:09;;;;;;;;;;;18.10;99.90;;;;;;5064229;22;19943;-71
2022/10/29 12:08:53;;;;;;;;;;;18.10;99.90;;;;;;5062027;28;19974;-71
2022/10/29 12:11:25;;;;;;;;;;;18.00;99.90;;;;;;5043208;28;19928;-72
2022/10/29 12:13:57;;;;;;;;;;;17.90;99.90;;;;;;5040238;28;20007;-71
2022/10/29 12:16:24;;;;;;;;;;;;;;;;;;5059690;28;19935;-71
2022/10/29 12:19:11;;;;;;;;;;;18.30;99.90;;;;;;5044267;28;19924;-71
2022/10/29 12:21:45;;;;;;;;;;;18.10;99.90;;;;;;5042604;28;19924;-71
2022/10/29 12:24:21;;;;;;;;;;;18.40;99.90;;;;;;5038480;28;19928;-71
2022/10/29 12:26:47;;;;;;;;;;;18.70;99.90;;;;;;5036500;28;20079;-71
2022/10/29 12:29:18;;;;;;;;;;;19.30;99.90;;;;;;5059936;28;20590;-71
2022/10/29 12:31:52;;;;;;;;;;;18.80;99.90;;;;;;5058696;28;20000;-71
2022/10/29 12:34:25;;;;;;;;;;;18.90;99.90;;;;;;5059551;28;19977;-71
2022/10/29 12:36:50;;;;;;;;;;;18.70;99.90;;;;;;5030189;28;20023;-71
2022/10/29 12:39:31;;;;;;;;;;;18.80;99.90;;;;;;5042254;28;20011;-71
2022/10/29 12:42:16;;;;;;;;;;;18.70;99.90;;;;;;5037695;28;19924;-71
2022/10/29 12:45:02;;;;;;;;;;;18.80;99.90;;;;;;5038941;28;19924;-71
2022/10/29 12:47:40;;;;;;;;;;;18.70;99.90;;;;;;5016234;28;19931;-71
2022/10/29 12:50:05;;;;;;;;;;;18.60;99.90;;;;;;5052901;28;19931;-71
2022/10/29 12:52:42;;;;;;;;;;;18.70;99.90;;;;;;5038122;28;20278;-71
2022/10/29 12:55:09;;;;;;;;;;;18.80;99.90;;;;;;5058807;28;19940;-71
2022/10/29 12:57:35;;;;;;;;;;;19.20;99.90;;;;;;5039586;28;19920;-71
2022/10/29 13:00:19;;;;;;;;;;;19.10;99.90;;;;;;5055154;28;19924;-72
2022/10/29 13:02:45;;;;;;;;;;;19.20;99.90;;;;;;5056832;28;20382;-71
2022/10/29 13:05:12;;;;;;;;;;;19.20;99.90;;;;;;5065104;28;20234;-71
2022/10/29 13:07:44;;;;;;;;;;;19.50;99.90;;;;;;5044890;28;19935;-71
2022/10/29 13:10:22;;;;;;;;;;;19.40;99.90;;;;;;5041282;28;20013;-72
2022/10/29 13:12:53;;;;;;;;;;;19.30;99.90;;;;;;5058470;28;20115;-71
2022/10/29 13:15:23;;;;;;;;;;;19.30;99.90;;;;;;5046560;28;19924;-72
2022/10/29 13:17:50;;;;;;;;;;;19.30;99.90;;;;;;5068577;28;19924;-72
2022/10/29 13:20:36;;;;;;;;;;;19.20;99.90;;;;;;5072990;28;19920;-72
2022/10/29 13:23:01;;;;;;;;;;;19.10;99.90;;;;;;5051372;28;19921;-71
2022/10/29 13:25:33;;;;;;;;;;;19.20;99.90;;;;;;5052261;28;20386;-71
2022/10/29 13:28:18;;;;;;;;;;;19.10;99.90;;;;;;5052791;28;19924;-71
2022/10/29 13:30:51;;;;;;;;;;;19.20;99.90;;;;;;5014444;28;19928;-71
2022/10/29 13:33:26;;;;;;;;;;;19.20;99.90;;;;;;5053479;28;19920;-70
2022/10/29 13:35:55;;;;;;;;;;;19.10;99.90;;;;;;5067363;28;19925;-72
2022/10/29 13:38:40;;;;;;;;;;;19.60;99.90;;;;;;5038175;28;19928;-72
2022/10/29 13:41:10;;;;;;;;;;;19.50;99.90;;;;;;5054009;28;19950;-72
2022/10/29 13:43:36;;;;;;;;;;;19.40;99.90;;;;;;5072347;28;19995;-72
2022/10/29 13:46:05;;;;;;;;;;;19.80;99.90;;;;;;5036762;28;19921;-72
2022/10/29 13:48:32;;;;;;;;;;;19.30;99.90;;;;;;5054184;28;19982;-72
2022/10/29 13:50:58;;;;;;;;;;;19.80;99.90;;;;;;5053242;28;20393;-72
2022/10/29 13:53:39;;;;;;;;;;;19.60;99.90;;;;;;5054373;28;19927;-72
2022/10/29 13:56:09;;;;;;;;;;;19.30;99.90;;;;;;5053424;28;20012;-72
2022/10/29 13:58:36;;;;;;;;;;;19.30;99.90;;;;;;5054895;28;19921;-72
2022/10/29 14:01:07;;;;;;;;;;;19.20;99.90;;;;;;5072939;28;19927;-72
2022/10/29 14:03:37;;;;;;;;;;;19.20;99.90;;;;;;5072306;28;20007;-72
2022/10/29 14:06:12;;;;;;;;;;;19.20;99.90;;;;;;5053634;28;19928;-72
2022/10/29 14:09:02;;;;;;;;;;;19.20;99.90;;;;;;5072156;28;19959;-72
2022/10/29 14:11:29;;;;;;;;;;;18.90;99.90;;;;;;5071650;28;20444;-72
2022/10/29 14:14:03;;;;;;;;;;;19.30;99.90;;;;;;5071308;28;19921;-71
2022/10/29 14:16:31;;;;;;;;;;;19.00;99.90;;;;;;5053785;28;19924;-71
2022/10/29 14:18:57;;;;;;;;;;;19.40;99.90;;;;;;5053994;28;20386;-72
2022/10/29 14:21:24;;;;;;;;;;;19.60;99.90;;;;;;5053826;28;19928;-72
2022/10/29 14:23:59;;;;;;;;;;;19.00;99.90;;;;;;5071595;28;19928;-72
2022/10/29 14:26:26;;;;;;;;;;;19.10;99.90;;;;;;5054311;28;20365;-72
2022/10/29 14:28:52;;;;;;;;;;;19.30;99.90;;;;;;5053413;28;19932;-72
2022/10/29 14:31:19;;;;;;;;;;;19.80;99.90;;;;;;5053784;28;19920;-72
2022/10/29 14:33:52;;;;;;;;;;;19.10;99.90;;;;;;5053743;28;20298;-72